Terminal Aerodrome Forecast
Issued by NWS

Home | Current Version | Previous Version | Text Only | Print | Product List | Glossary Off
Versions: 1 2 3 4 5 6 7 8 9 10 11 12 13 14 15 16 17 18

000
FTUS43 KTOP 211100
TAFFOE
TAF
KFOE 211123Z 2112/2212 22008KT P6SM -SHRA BKN070
     FM211600 32010KT P6SM -SHRA VCTS FEW023 BKN035CB
     FM212100 33012G20KT P6SM SCT040=

USA.gov is the U.S. government's official web portal to all federal, state and local government web resources and services.